sensor_id;sensor_type;location;lat;lon;timestamp;P1;durP1;ratioP1;P2;durP2;ratioP2
20997;SDS011;10657;51.276;6.390;2023-07-20T00:02:18;8.20;;;3.85;;
20997;SDS011;10657;51.276;6.390;2023-07-20T00:04:45;6.70;;;3.35;;
20997;SDS011;10657;51.276;6.390;2023-07-20T00:07:12;8.65;;;3.47;;
20997;SDS011;10657;51.276;6.390;2023-07-20T00:09:39;7.50;;;3.42;;
20997;SDS011;10657;51.276;6.390;2023-07-20T00:12:05;10.60;;;4.03;;
20997;SDS011;10657;51.276;6.390;2023-07-20T00:14:32;7.45;;;3.90;;
20997;SDS011;10657;51.276;6.390;2023-07-20T00:16:59;9.68;;;3.83;;
20997;SDS011;10657;51.276;6.390;2023-07-20T00:19:26;9.32;;;3.72;;
20997;SDS011;10657;51.276;6.390;2023-07-20T00:21:54;9.75;;;3.95;;
20997;SDS011;10657;51.276;6.390;2023-07-20T00:24:21;11.00;;;4.18;;
20997;SDS011;10657;51.276;6.390;2023-07-20T00:26:48;10.57;;;4.03;;
20997;SDS011;10657;51.276;6.390;2023-07-20T00:29:14;9.75;;;3.85;;
20997;SDS011;10657;51.276;6.390;2023-07-20T00:31:41;9.77;;;3.95;;
20997;SDS011;10657;51.276;6.390;2023-07-20T00:34:09;9.27;;;4.00;;
20997;SDS011;10657;51.276;6.390;2023-07-20T00:36:36;8.45;;;3.67;;
20997;SDS011;10657;51.276;6.390;2023-07-20T00:39:03;7.50;;;3.53;;
20997;SDS011;10657;51.276;6.390;2023-07-20T00:41:29;9.35;;;3.67;;
20997;SDS011;10657;51.276;6.390;2023-07-20T00:43:57;8.95;;;3.83;;
20997;SDS011;10657;51.276;6.390;2023-07-20T00:46:24;9.18;;;3.60;;
20997;SDS011;10657;51.276;6.390;2023-07-20T00:48:53;10.43;;;3.75;;
20997;SDS011;10657;51.276;6.390;2023-07-20T00:51:20;12.25;;;3.92;;
20997;SDS011;10657;51.276;6.390;2023-07-20T00:53:49;10.15;;;3.95;;
20997;SDS011;10657;51.276;6.390;2023-07-20T00:56:16;10.50;;;4.10;;
20997;SDS011;10657;51.276;6.390;2023-07-20T00:58:43;8.13;;;3.92;;
20997;SDS011;10657;51.276;6.390;2023-07-20T01:01:10;8.35;;;3.80;;
20997;SDS011;10657;51.276;6.390;2023-07-20T01:03:37;8.88;;;3.88;;
20997;SDS011;10657;51.276;6.390;2023-07-20T01:06:08;9.45;;;3.83;;
20997;SDS011;10657;51.276;6.390;2023-07-20T01:11:13;9.05;;;4.03;;
20997;SDS011;10657;51.276;6.390;2023-07-20T01:13:43;7.57;;;3.75;;
20997;SDS011;10657;51.276;6.390;2023-07-20T01:16:11;9.88;;;4.13;;
20997;SDS011;10657;51.276;6.390;2023-07-20T01:18:37;8.30;;;3.88;;
20997;SDS011;10657;51.276;6.390;2023-07-20T01:21:06;8.63;;;4.15;;
20997;SDS011;10657;51.276;6.390;2023-07-20T01:29:41;7.75;;;3.55;;
20997;SDS011;10657;51.276;6.390;2023-07-20T01:32:02;11.00;;;3.83;;
20997;SDS011;10657;51.276;6.390;2023-07-20T01:34:33;10.23;;;4.10;;
20997;SDS011;10657;51.276;6.390;2023-07-20T01:37:01;8.60;;;3.70;;
20997;SDS011;10657;51.276;6.390;2023-07-20T01:39:30;9.40;;;3.97;;
20997;SDS011;10657;51.276;6.390;2023-07-20T01:41:58;9.98;;;3.95;;
20997;SDS011;10657;51.276;6.390;2023-07-20T01:44:27;6.68;;;3.33;;
20997;SDS011;10657;51.276;6.390;2023-07-20T01:46:53;8.65;;;3.53;;
20997;SDS011;10657;51.276;6.390;2023-07-20T01:49:20;9.40;;;3.60;;
20997;SDS011;10657;51.276;6.390;2023-07-20T01:51:47;6.97;;;3.58;;
20997;SDS011;10657;51.276;6.390;2023-07-20T01:54:13;8.32;;;3.80;;
20997;SDS011;10657;51.276;6.390;2023-07-20T01:56:40;8.57;;;3.70;;
20997;SDS011;10657;51.276;6.390;2023-07-20T01:59:07;9.95;;;3.92;;
20997;SDS011;10657;51.276;6.390;2023-07-20T02:01:33;10.45;;;4.45;;
20997;SDS011;10657;51.276;6.390;2023-07-20T02:04:00;8.98;;;4.13;;
20997;SDS011;10657;51.276;6.390;2023-07-20T02:06:27;8.75;;;4.10;;
20997;SDS011;10657;51.276;6.390;2023-07-20T02:08:53;12.63;;;4.18;;
20997;SDS011;10657;51.276;6.390;2023-07-20T02:11:20;8.75;;;4.10;;
20997;SDS011;10657;51.276;6.390;2023-07-20T02:13:47;10.18;;;3.78;;
20997;SDS011;10657;51.276;6.390;2023-07-20T02:16:13;8.35;;;3.88;;
20997;SDS011;10657;51.276;6.390;2023-07-20T02:18:40;8.73;;;3.97;;
20997;SDS011;10657;51.276;6.390;2023-07-20T02:21:07;9.02;;;3.97;;
20997;SDS011;10657;51.276;6.390;2023-07-20T02:23:33;7.97;;;3.70;;
20997;SDS011;10657;51.276;6.390;2023-07-20T02:26:00;9.13;;;4.18;;
20997;SDS011;10657;51.276;6.390;2023-07-20T02:28:27;9.15;;;3.83;;
20997;SDS011;10657;51.276;6.390;2023-07-20T02:30:55;10.30;;;4.03;;
20997;SDS011;10657;51.276;6.390;2023-07-20T02:33:21;8.68;;;3.90;;
20997;SDS011;10657;51.276;6.390;2023-07-20T02:35:48;12.40;;;3.83;;
20997;SDS011;10657;51.276;6.390;2023-07-20T02:38:15;11.98;;;4.05;;
20997;SDS011;10657;51.276;6.390;2023-07-20T02:40:41;9.30;;;3.85;;
20997;SDS011;10657;51.276;6.390;2023-07-20T02:43:08;10.55;;;3.78;;
20997;SDS011;10657;51.276;6.390;2023-07-20T02:45:35;11.07;;;3.83;;
20997;SDS011;10657;51.276;6.390;2023-07-20T02:48:06;10.80;;;3.72;;
20997;SDS011;10657;51.276;6.390;2023-07-20T02:50:34;8.48;;;4.22;;
20997;SDS011;10657;51.276;6.390;2023-07-20T02:53:01;10.00;;;3.97;;
20997;SDS011;10657;51.276;6.390;2023-07-20T02:55:28;9.75;;;4.28;;
20997;SDS011;10657;51.276;6.390;2023-07-20T02:57:54;9.63;;;4.07;;
20997;SDS011;10657;51.276;6.390;2023-07-20T03:00:21;9.63;;;4.00;;
20997;SDS011;10657;51.276;6.390;2023-07-20T03:02:49;10.20;;;4.30;;
20997;SDS011;10657;51.276;6.390;2023-07-20T03:05:22;10.20;;;4.47;;
20997;SDS011;10657;51.276;6.390;2023-07-20T03:07:54;11.88;;;5.18;;
20997;SDS011;10657;51.276;6.390;2023-07-20T03:10:21;10.45;;;3.58;;
20997;SDS011;10657;51.276;6.390;2023-07-20T03:12:48;10.25;;;4.75;;
20997;SDS011;10657;51.276;6.390;2023-07-20T03:15:15;13.25;;;4.47;;
20997;SDS011;10657;51.276;6.390;2023-07-20T03:17:41;9.35;;;4.10;;
20997;SDS011;10657;51.276;6.390;2023-07-20T03:20:08;8.95;;;4.38;;
20997;SDS011;10657;51.276;6.390;2023-07-20T03:22:36;10.05;;;4.22;;
20997;SDS011;10657;51.276;6.390;2023-07-20T03:25:03;9.70;;;4.38;;
20997;SDS011;10657;51.276;6.390;2023-07-20T03:27:30;10.43;;;4.38;;
20997;SDS011;10657;51.276;6.390;2023-07-20T03:29:57;9.90;;;4.15;;
20997;SDS011;10657;51.276;6.390;2023-07-20T03:32:24;9.45;;;4.57;;
20997;SDS011;10657;51.276;6.390;2023-07-20T03:34:50;11.35;;;4.93;;
20997;SDS011;10657;51.276;6.390;2023-07-20T03:37:17;11.05;;;4.55;;
20997;SDS011;10657;51.276;6.390;2023-07-20T03:39:44;11.32;;;5.22;;
20997;SDS011;10657;51.276;6.390;2023-07-20T03:42:10;11.70;;;5.15;;
20997;SDS011;10657;51.276;6.390;2023-07-20T03:44:37;8.70;;;4.95;;
20997;SDS011;10657;51.276;6.390;2023-07-20T03:47:04;11.25;;;4.57;;
20997;SDS011;10657;51.276;6.390;2023-07-20T03:49:32;10.40;;;4.90;;
20997;SDS011;10657;51.276;6.390;2023-07-20T03:52:00;11.57;;;5.53;;
20997;SDS011;10657;51.276;6.390;2023-07-20T03:54:27;13.82;;;5.45;;
20997;SDS011;10657;51.276;6.390;2023-07-20T03:56:53;11.40;;;5.78;;
20997;SDS011;10657;51.276;6.390;2023-07-20T03:59:21;13.13;;;5.43;;
20997;SDS011;10657;51.276;6.390;2023-07-20T04:01:48;10.77;;;5.90;;
20997;SDS011;10657;51.276;6.390;2023-07-20T04:04:15;16.73;;;6.10;;
20997;SDS011;10657;51.276;6.390;2023-07-20T04:06:43;13.25;;;6.90;;
20997;SDS011;10657;51.276;6.390;2023-07-20T04:09:12;12.70;;;5.82;;
20997;SDS011;10657;51.276;6.390;2023-07-20T04:11:39;10.93;;;6.07;;
20997;SDS011;10657;51.276;6.390;2023-07-20T04:14:06;13.65;;;6.50;;
20997;SDS011;10657;51.276;6.390;2023-07-20T04:16:33;12.63;;;6.57;;
20997;SDS011;10657;51.276;6.390;2023-07-20T04:19:00;14.57;;;6.07;;
20997;SDS011;10657;51.276;6.390;2023-07-20T04:21:27;13.35;;;6.78;;
20997;SDS011;10657;51.276;6.390;2023-07-20T04:23:54;13.23;;;6.72;;
20997;SDS011;10657;51.276;6.390;2023-07-20T04:26:20;11.18;;;6.20;;
20997;SDS011;10657;51.276;6.390;2023-07-20T04:28:48;12.55;;;7.10;;
20997;SDS011;10657;51.276;6.390;2023-07-20T04:31:16;14.00;;;7.55;;
20997;SDS011;10657;51.276;6.390;2023-07-20T04:33:43;15.88;;;8.05;;
20997;SDS011;10657;51.276;6.390;2023-07-20T04:36:10;15.88;;;8.27;;
20997;SDS011;10657;51.276;6.390;2023-07-20T04:38:36;15.10;;;7.75;;
20997;SDS011;10657;51.276;6.390;2023-07-20T04:41:03;13.40;;;8.13;;
20997;SDS011;10657;51.276;6.390;2023-07-20T04:43:30;13.88;;;9.27;;
20997;SDS011;10657;51.276;6.390;2023-07-20T04:45:57;16.98;;;9.52;;
20997;SDS011;10657;51.276;6.390;2023-07-20T04:48:24;15.18;;;9.15;;
20997;SDS011;10657;51.276;6.390;2023-07-20T04:50:51;15.88;;;8.70;;
20997;SDS011;10657;51.276;6.390;2023-07-20T04:53:18;14.38;;;9.40;;
20997;SDS011;10657;51.276;6.390;2023-07-20T04:55:48;16.50;;;10.35;;
20997;SDS011;10657;51.276;6.390;2023-07-20T04:58:20;13.93;;;8.77;;
20997;SDS011;10657;51.276;6.390;2023-07-20T05:00:48;16.52;;;10.07;;
20997;SDS011;10657;51.276;6.390;2023-07-20T05:03:16;18.20;;;9.75;;
20997;SDS011;10657;51.276;6.390;2023-07-20T05:05:43;17.08;;;10.02;;
20997;SDS011;10657;51.276;6.390;2023-07-20T05:08:12;16.50;;;10.13;;
20997;SDS011;10657;51.276;6.390;2023-07-20T05:10:39;16.67;;;10.32;;
20997;SDS011;10657;51.276;6.390;2023-07-20T05:13:05;16.42;;;9.93;;
20997;SDS011;10657;51.276;6.390;2023-07-20T05:15:33;15.05;;;10.20;;
20997;SDS011;10657;51.276;6.390;2023-07-20T05:18:00;19.58;;;10.68;;
20997;SDS011;10657;51.276;6.390;2023-07-20T05:20:27;18.92;;;10.50;;
20997;SDS011;10657;51.276;6.390;2023-07-20T05:22:54;14.55;;;10.10;;
20997;SDS011;10657;51.276;6.390;2023-07-20T05:25:20;16.38;;;9.25;;
20997;SDS011;10657;51.276;6.390;2023-07-20T05:27:49;14.90;;;9.18;;
20997;SDS011;10657;51.276;6.390;2023-07-20T05:30:16;15.00;;;10.18;;
20997;SDS011;10657;51.276;6.390;2023-07-20T05:32:43;15.50;;;10.43;;
20997;SDS011;10657;51.276;6.390;2023-07-20T05:35:12;14.27;;;9.63;;
20997;SDS011;10657;51.276;6.390;2023-07-20T05:37:40;12.88;;;8.77;;
20997;SDS011;10657;51.276;6.390;2023-07-20T05:40:06;14.65;;;8.32;;
20997;SDS011;10657;51.276;6.390;2023-07-20T05:42:34;14.85;;;9.07;;
20997;SDS011;10657;51.276;6.390;2023-07-20T05:45:01;13.43;;;7.65;;
20997;SDS011;10657;51.276;6.390;2023-07-20T05:47:28;10.35;;;7.00;;
20997;SDS011;10657;51.276;6.390;2023-07-20T05:49:55;10.90;;;6.80;;
20997;SDS011;10657;51.276;6.390;2023-07-20T05:52:21;11.27;;;7.20;;
20997;SDS011;10657;51.276;6.390;2023-07-20T05:54:48;11.60;;;6.60;;
20997;SDS011;10657;51.276;6.390;2023-07-20T05:57:15;11.55;;;6.47;;
20997;SDS011;10657;51.276;6.390;2023-07-20T05:59:41;12.18;;;6.70;;
20997;SDS011;10657;51.276;6.390;2023-07-20T06:02:10;13.10;;;6.63;;
20997;SDS011;10657;51.276;6.390;2023-07-20T06:04:38;12.18;;;6.53;;
20997;SDS011;10657;51.276;6.390;2023-07-20T06:07:05;10.88;;;7.10;;
20997;SDS011;10657;51.276;6.390;2023-07-20T06:09:34;10.60;;;6.30;;
20997;SDS011;10657;51.276;6.390;2023-07-20T06:12:00;12.57;;;7.15;;
20997;SDS011;10657;51.276;6.390;2023-07-20T06:14:27;11.40;;;6.90;;
20997;SDS011;10657;51.276;6.390;2023-07-20T06:16:54;10.65;;;6.40;;
20997;SDS011;10657;51.276;6.390;2023-07-20T06:19:20;10.27;;;6.55;;
20997;SDS011;10657;51.276;6.390;2023-07-20T06:21:48;10.13;;;6.53;;
20997;SDS011;10657;51.276;6.390;2023-07-20T06:24:18;10.80;;;6.57;;
20997;SDS011;10657;51.276;6.390;2023-07-20T06:26:45;12.00;;;6.80;;
20997;SDS011;10657;51.276;6.390;2023-07-20T06:29:11;14.23;;;6.40;;
20997;SDS011;10657;51.276;6.390;2023-07-20T06:31:38;11.48;;;6.90;;
20997;SDS011;10657;51.276;6.390;2023-07-20T06:34:05;10.75;;;5.20;;
20997;SDS011;10657;51.276;6.390;2023-07-20T06:36:32;8.80;;;4.30;;
20997;SDS011;10657;51.276;6.390;2023-07-20T06:38:58;7.95;;;4.18;;
20997;SDS011;10657;51.276;6.390;2023-07-20T06:41:28;9.68;;;3.60;;
20997;SDS011;10657;51.276;6.390;2023-07-20T06:43:58;7.03;;;2.58;;
20997;SDS011;10657;51.276;6.390;2023-07-20T06:46:27;5.28;;;2.45;;
20997;SDS011;10657;51.276;6.390;2023-07-20T06:48:54;6.65;;;2.90;;
20997;SDS011;10657;51.276;6.390;2023-07-20T06:51:24;6.90;;;3.05;;
20997;SDS011;10657;51.276;6.390;2023-07-20T06:53:51;5.88;;;3.08;;
20997;SDS011;10657;51.276;6.390;2023-07-20T06:56:18;7.28;;;3.50;;
20997;SDS011;10657;51.276;6.390;2023-07-20T06:58:48;7.47;;;3.85;;
20997;SDS011;10657;51.276;6.390;2023-07-20T07:01:15;8.30;;;4.47;;
20997;SDS011;10657;51.276;6.390;2023-07-20T07:03:43;8.18;;;3.88;;
20997;SDS011;10657;51.276;6.390;2023-07-20T07:06:10;7.30;;;3.92;;
20997;SDS011;10657;51.276;6.390;2023-07-20T07:08:36;7.30;;;3.95;;
20997;SDS011;10657;51.276;6.390;2023-07-20T07:11:03;7.85;;;3.58;;
20997;SDS011;10657;51.276;6.390;2023-07-20T07:13:30;9.48;;;3.35;;
20997;SDS011;10657;51.276;6.390;2023-07-20T07:15:57;8.00;;;3.33;;
20997;SDS011;10657;51.276;6.390;2023-07-20T07:18:23;5.03;;;2.20;;
20997;SDS011;10657;51.276;6.390;2023-07-20T07:20:51;4.30;;;1.60;;
20997;SDS011;10657;51.276;6.390;2023-07-20T07:23:18;3.78;;;1.50;;
20997;SDS011;10657;51.276;6.390;2023-07-20T07:25:45;5.05;;;1.98;;
20997;SDS011;10657;51.276;6.390;2023-07-20T07:28:12;4.43;;;1.98;;
20997;SDS011;10657;51.276;6.390;2023-07-20T07:30:39;4.93;;;1.88;;
20997;SDS011;10657;51.276;6.390;2023-07-20T07:33:06;4.60;;;1.80;;
20997;SDS011;10657;51.276;6.390;2023-07-20T07:35:33;7.85;;;3.60;;
20997;SDS011;10657;51.276;6.390;2023-07-20T07:37:59;6.50;;;3.28;;
20997;SDS011;10657;51.276;6.390;2023-07-20T07:40:46;8.15;;;3.50;;
20997;SDS011;10657;51.276;6.390;2023-07-20T07:43:13;7.35;;;3.28;;
20997;SDS011;10657;51.276;6.390;2023-07-20T07:45:40;7.20;;;3.28;;
20997;SDS011;10657;51.276;6.390;2023-07-20T07:48:07;7.70;;;3.80;;
20997;SDS011;10657;51.276;6.390;2023-07-20T07:50:34;6.53;;;3.20;;
20997;SDS011;10657;51.276;6.390;2023-07-20T07:53:01;3.80;;;1.75;;
20997;SDS011;10657;51.276;6.390;2023-07-20T07:55:29;3.65;;;1.50;;
20997;SDS011;10657;51.276;6.390;2023-07-20T07:57:55;2.65;;;1.23;;
20997;SDS011;10657;51.276;6.390;2023-07-20T08:00:22;2.72;;;1.00;;
20997;SDS011;10657;51.276;6.390;2023-07-20T08:02:50;4.63;;;2.00;;
20997;SDS011;10657;51.276;6.390;2023-07-20T08:05:17;5.40;;;1.73;;
20997;SDS011;10657;51.276;6.390;2023-07-20T08:07:44;7.13;;;2.67;;
20997;SDS011;10657;51.276;6.390;2023-07-20T08:10:11;8.27;;;2.95;;
20997;SDS011;10657;51.276;6.390;2023-07-20T08:12:38;5.18;;;2.40;;
20997;SDS011;10657;51.276;6.390;2023-07-20T08:15:05;4.63;;;1.98;;
20997;SDS011;10657;51.276;6.390;2023-07-20T08:17:32;6.50;;;2.10;;
20997;SDS011;10657;51.276;6.390;2023-07-20T08:19:59;4.18;;;1.70;;
20997;SDS011;10657;51.276;6.390;2023-07-20T08:22:26;4.45;;;1.73;;
20997;SDS011;10657;51.276;6.390;2023-07-20T08:24:52;3.85;;;1.73;;
20997;SDS011;10657;51.276;6.390;2023-07-20T08:27:19;4.65;;;1.90;;
20997;SDS011;10657;51.276;6.390;2023-07-20T08:29:46;5.88;;;1.80;;
20997;SDS011;10657;51.276;6.390;2023-07-20T08:32:13;5.30;;;1.90;;
20997;SDS011;10657;51.276;6.390;2023-07-20T08:34:41;3.65;;;1.60;;
20997;SDS011;10657;51.276;6.390;2023-07-20T08:37:08;4.32;;;1.30;;
20997;SDS011;10657;51.276;6.390;2023-07-20T08:39:36;3.55;;;1.17;;
20997;SDS011;10657;51.276;6.390;2023-07-20T08:42:03;4.03;;;1.55;;
20997;SDS011;10657;51.276;6.390;2023-07-20T08:44:33;2.53;;;1.20;;
20997;SDS011;10657;51.276;6.390;2023-07-20T08:47:00;3.22;;;1.30;;
20997;SDS011;10657;51.276;6.390;2023-07-20T08:49:31;4.70;;;1.35;;
20997;SDS011;10657;51.276;6.390;2023-07-20T08:51:59;4.43;;;1.25;;
20997;SDS011;10657;51.276;6.390;2023-07-20T08:54:27;3.75;;;1.30;;
20997;SDS011;10657;51.276;6.390;2023-07-20T08:57:01;4.72;;;1.65;;
20997;SDS011;10657;51.276;6.390;2023-07-20T08:59:29;6.00;;;1.83;;
20997;SDS011;10657;51.276;6.390;2023-07-20T09:01:57;3.72;;;1.60;;
20997;SDS011;10657;51.276;6.390;2023-07-20T09:04:25;4.38;;;1.73;;
20997;SDS011;10657;51.276;6.390;2023-07-20T09:06:52;4.60;;;1.83;;
20997;SDS011;10657;51.276;6.390;2023-07-20T09:09:19;3.03;;;1.42;;
20997;SDS011;10657;51.276;6.390;2023-07-20T09:11:49;4.68;;;1.30;;
20997;SDS011;10657;51.276;6.390;2023-07-20T09:14:16;3.60;;;1.30;;
20997;SDS011;10657;51.276;6.390;2023-07-20T09:16:50;4.80;;;1.02;;
20997;SDS011;10657;51.276;6.390;2023-07-20T09:19:19;2.30;;;0.80;;
20997;SDS011;10657;51.276;6.390;2023-07-20T09:21:46;3.15;;;1.45;;
20997;SDS011;10657;51.276;6.390;2023-07-20T09:24:14;4.43;;;1.33;;
20997;SDS011;10657;51.276;6.390;2023-07-20T09:26:43;6.32;;;1.85;;
20997;SDS011;10657;51.276;6.390;2023-07-20T09:29:11;3.75;;;1.27;;
20997;SDS011;10657;51.276;6.390;2023-07-20T09:31:38;2.60;;;0.90;;
20997;SDS011;10657;51.276;6.390;2023-07-20T09:34:07;2.05;;;0.90;;
20997;SDS011;10657;51.276;6.390;2023-07-20T09:36:35;2.08;;;0.93;;
20997;SDS011;10657;51.276;6.390;2023-07-20T09:39:06;2.83;;;1.27;;
20997;SDS011;10657;51.276;6.390;2023-07-20T09:41:40;3.15;;;1.20;;
20997;SDS011;10657;51.276;6.390;2023-07-20T09:44:11;2.42;;;1.00;;
20997;SDS011;10657;51.276;6.390;2023-07-20T09:46:48;2.97;;;1.20;;
20997;SDS011;10657;51.276;6.390;2023-07-20T09:49:19;3.20;;;1.30;;
20997;SDS011;10657;51.276;6.390;2023-07-20T09:51:49;2.83;;;1.20;;
20997;SDS011;10657;51.276;6.390;2023-07-20T09:54:16;4.00;;;1.42;;
20997;SDS011;10657;51.276;6.390;2023-07-20T09:56:44;2.35;;;1.02;;
20997;SDS011;10657;51.276;6.390;2023-07-20T09:59:12;3.25;;;1.40;;
20997;SDS011;10657;51.276;6.390;2023-07-20T10:01:40;2.70;;;1.25;;
20997;SDS011;10657;51.276;6.390;2023-07-20T10:04:09;4.03;;;1.10;;
20997;SDS011;10657;51.276;6.390;2023-07-20T10:06:39;2.53;;;1.20;;
20997;SDS011;10657;51.276;6.390;2023-07-20T10:09:09;3.85;;;1.30;;
20997;SDS011;10657;51.276;6.390;2023-07-20T10:11:38;4.40;;;1.30;;
20997;SDS011;10657;51.276;6.390;2023-07-20T10:14:09;4.43;;;0.93;;
20997;SDS011;10657;51.276;6.390;2023-07-20T10:16:46;3.92;;;1.30;;
20997;SDS011;10657;51.276;6.390;2023-07-20T10:19:34;2.55;;;1.40;;
20997;SDS011;10657;51.276;6.390;2023-07-20T10:22:22;4.80;;;1.13;;
20997;SDS011;10657;51.276;6.390;2023-07-20T10:24:52;3.33;;;1.40;;
20997;SDS011;10657;51.276;6.390;2023-07-20T10:27:20;5.45;;;1.20;;
20997;SDS011;10657;51.276;6.390;2023-07-20T10:29:51;2.72;;;1.20;;
20997;SDS011;10657;51.276;6.390;2023-07-20T10:32:19;3.17;;;1.30;;
20997;SDS011;10657;51.276;6.390;2023-07-20T10:34:52;4.63;;;1.40;;
20997;SDS011;10657;51.276;6.390;2023-07-20T10:37:59;2.55;;;1.20;;
20997;SDS011;10657;51.276;6.390;2023-07-20T10:42:56;3.15;;;1.13;;
20997;SDS011;10657;51.276;6.390;2023-07-20T10:48:14;3.88;;;1.20;;
20997;SDS011;10657;51.276;6.390;2023-07-20T10:50:43;3.47;;;1.20;;
20997;SDS011;10657;51.276;6.390;2023-07-20T10:53:18;2.90;;;1.17;;
20997;SDS011;10657;51.276;6.390;2023-07-20T10:55:44;4.20;;;1.45;;
20997;SDS011;10657;51.276;6.390;2023-07-20T10:58:16;3.22;;;1.30;;
20997;SDS011;10657;51.276;6.390;2023-07-20T11:00:56;3.97;;;1.30;;
20997;SDS011;10657;51.276;6.390;2023-07-20T11:03:43;3.47;;;1.15;;
20997;SDS011;10657;51.276;6.390;2023-07-20T11:09:04;2.92;;;1.20;;
20997;SDS011;10657;51.276;6.390;2023-07-20T11:11:44;4.90;;;1.65;;
20997;SDS011;10657;51.276;6.390;2023-07-20T11:14:22;2.92;;;1.40;;
20997;SDS011;10657;51.276;6.390;2023-07-20T11:16:52;3.03;;;1.23;;
20997;SDS011;10657;51.276;6.390;2023-07-20T11:19:20;4.40;;;1.52;;
20997;SDS011;10657;51.276;6.390;2023-07-20T11:21:56;4.25;;;1.20;;
20997;SDS011;10657;51.276;6.390;2023-07-20T11:24:28;3.17;;;1.40;;
20997;SDS011;10657;51.276;6.390;2023-07-20T11:26:56;2.92;;;1.30;;
20997;SDS011;10657;51.276;6.390;2023-07-20T11:29:23;3.55;;;1.20;;
20997;SDS011;10657;51.276;6.390;2023-07-20T11:31:59;3.15;;;1.17;;
20997;SDS011;10657;51.276;6.390;2023-07-20T11:34:26;3.90;;;1.38;;
20997;SDS011;10657;51.276;6.390;2023-07-20T11:36:54;3.85;;;1.15;;
20997;SDS011;10657;51.276;6.390;2023-07-20T11:39:23;2.65;;;1.15;;
20997;SDS011;10657;51.276;6.390;2023-07-20T11:41:53;2.75;;;1.20;;
20997;SDS011;10657;51.276;6.390;2023-07-20T11:44:27;2.22;;;1.00;;
20997;SDS011;10657;51.276;6.390;2023-07-20T11:47:02;4.68;;;1.30;;
20997;SDS011;10657;51.276;6.390;2023-07-20T11:49:36;3.03;;;1.23;;
20997;SDS011;10657;51.276;6.390;2023-07-20T11:52:07;1.55;;;0.88;;
20997;SDS011;10657;51.276;6.390;2023-07-20T11:54:41;2.42;;;0.90;;
20997;SDS011;10657;51.276;6.390;2023-07-20T11:57:17;3.38;;;1.20;;
20997;SDS011;10657;51.276;6.390;2023-07-20T11:59:54;2.53;;;1.05;;
20997;SDS011;10657;51.276;6.390;2023-07-20T12:02:28;2.58;;;1.10;;
20997;SDS011;10657;51.276;6.390;2023-07-20T12:04:56;3.92;;;1.20;;
20997;SDS011;10657;51.276;6.390;2023-07-20T12:07:25;3.78;;;1.40;;
20997;SDS011;10657;51.276;6.390;2023-07-20T12:10:07;3.08;;;1.17;;
20997;SDS011;10657;51.276;6.390;2023-07-20T12:12:38;2.38;;;1.10;;
20997;SDS011;10657;51.276;6.390;2023-07-20T12:17:44;2.80;;;1.10;;
20997;SDS011;10657;51.276;6.390;2023-07-20T12:20:12;2.80;;;1.17;;
20997;SDS011;10657;51.276;6.390;2023-07-20T12:22:39;2.60;;;1.13;;
20997;SDS011;10657;51.276;6.390;2023-07-20T12:25:09;3.65;;;1.00;;
20997;SDS011;10657;51.276;6.390;2023-07-20T12:27:36;2.28;;;1.00;;
20997;SDS011;10657;51.276;6.390;2023-07-20T12:30:05;1.90;;;0.98;;
20997;SDS011;10657;51.276;6.390;2023-07-20T12:32:32;2.33;;;0.93;;
20997;SDS011;10657;51.276;6.390;2023-07-20T12:34:59;1.33;;;0.80;;
20997;SDS011;10657;51.276;6.390;2023-07-20T12:37:26;2.55;;;0.80;;
20997;SDS011;10657;51.276;6.390;2023-07-20T12:39:53;1.45;;;0.80;;
20997;SDS011;10657;51.276;6.390;2023-07-20T12:42:20;2.47;;;0.85;;
20997;SDS011;10657;51.276;6.390;2023-07-20T12:44:47;1.63;;;0.75;;
20997;SDS011;10657;51.276;6.390;2023-07-20T12:47:15;3.88;;;1.10;;
20997;SDS011;10657;51.276;6.390;2023-07-20T12:49:43;3.17;;;1.40;;
20997;SDS011;10657;51.276;6.390;2023-07-20T12:52:11;1.92;;;1.00;;
20997;SDS011;10657;51.276;6.390;2023-07-20T12:54:38;2.40;;;0.90;;
20997;SDS011;10657;51.276;6.390;2023-07-20T12:57:05;2.95;;;0.90;;
20997;SDS011;10657;51.276;6.390;2023-07-20T12:59:35;3.20;;;1.10;;
20997;SDS011;10657;51.276;6.390;2023-07-20T13:02:02;2.30;;;0.90;;
20997;SDS011;10657;51.276;6.390;2023-07-20T13:04:29;3.08;;;1.25;;
20997;SDS011;10657;51.276;6.390;2023-07-20T13:06:56;4.50;;;1.13;;
20997;SDS011;10657;51.276;6.390;2023-07-20T13:09:24;2.22;;;1.00;;
20997;SDS011;10657;51.276;6.390;2023-07-20T13:11:51;3.17;;;1.20;;
20997;SDS011;10657;51.276;6.390;2023-07-20T13:14:19;2.13;;;1.00;;
20997;SDS011;10657;51.276;6.390;2023-07-20T13:16:45;1.60;;;0.90;;
20997;SDS011;10657;51.276;6.390;2023-07-20T13:19:12;1.80;;;0.95;;
20997;SDS011;10657;51.276;6.390;2023-07-20T13:21:39;1.95;;;1.02;;
20997;SDS011;10657;51.276;6.390;2023-07-20T13:24:06;2.88;;;1.00;;
20997;SDS011;10657;51.276;6.390;2023-07-20T13:26:32;2.25;;;1.17;;
20997;SDS011;10657;51.276;6.390;2023-07-20T13:29:00;1.42;;;0.65;;
20997;SDS011;10657;51.276;6.390;2023-07-20T13:31:26;3.85;;;1.30;;
20997;SDS011;10657;51.276;6.390;2023-07-20T13:33:54;2.90;;;1.10;;
20997;SDS011;10657;51.276;6.390;2023-07-20T13:36:26;3.75;;;1.40;;
20997;SDS011;10657;51.276;6.390;2023-07-20T13:38:55;3.58;;;1.30;;
20997;SDS011;10657;51.276;6.390;2023-07-20T13:41:22;3.00;;;1.30;;
20997;SDS011;10657;51.276;6.390;2023-07-20T13:43:50;3.92;;;1.13;;
20997;SDS011;10657;51.276;6.390;2023-07-20T13:46:17;2.33;;;1.10;;
20997;SDS011;10657;51.276;6.390;2023-07-20T13:49:04;5.03;;;1.30;;
20997;SDS011;10657;51.276;6.390;2023-07-20T13:51:38;4.35;;;1.40;;
20997;SDS011;10657;51.276;6.390;2023-07-20T13:54:06;3.00;;;1.30;;
20997;SDS011;10657;51.276;6.390;2023-07-20T13:56:36;2.78;;;1.20;;
20997;SDS011;10657;51.276;6.390;2023-07-20T13:59:02;2.63;;;1.17;;
20997;SDS011;10657;51.276;6.390;2023-07-20T14:01:32;3.70;;;1.38;;
20997;SDS011;10657;51.276;6.390;2023-07-20T14:04:04;2.70;;;1.23;;
20997;SDS011;10657;51.276;6.390;2023-07-20T14:06:31;2.90;;;1.17;;
20997;SDS011;10657;51.276;6.390;2023-07-20T14:08:59;3.65;;;1.30;;
20997;SDS011;10657;51.276;6.390;2023-07-20T14:11:26;3.95;;;1.13;;
20997;SDS011;10657;51.276;6.390;2023-07-20T14:13:56;3.65;;;1.33;;
20997;SDS011;10657;51.276;6.390;2023-07-20T14:16:24;4.53;;;1.33;;
20997;SDS011;10657;51.276;6.390;2023-07-20T14:18:52;3.22;;;1.40;;
20997;SDS011;10657;51.276;6.390;2023-07-20T14:21:19;2.25;;;1.20;;
20997;SDS011;10657;51.276;6.390;2023-07-20T14:23:47;3.20;;;1.25;;
20997;SDS011;10657;51.276;6.390;2023-07-20T14:26:19;2.85;;;1.17;;
20997;SDS011;10657;51.276;6.390;2023-07-20T14:28:48;3.30;;;1.50;;
20997;SDS011;10657;51.276;6.390;2023-07-20T14:31:15;3.03;;;1.17;;
20997;SDS011;10657;51.276;6.390;2023-07-20T14:33:42;2.72;;;1.30;;
20997;SDS011;10657;51.276;6.390;2023-07-20T14:36:08;3.80;;;1.20;;
20997;SDS011;10657;51.276;6.390;2023-07-20T14:38:37;2.58;;;0.88;;
20997;SDS011;10657;51.276;6.390;2023-07-20T14:41:03;4.95;;;1.40;;
20997;SDS011;10657;51.276;6.390;2023-07-20T14:43:32;4.93;;;1.50;;
20997;SDS011;10657;51.276;6.390;2023-07-20T14:45:59;3.47;;;1.50;;
20997;SDS011;10657;51.276;6.390;2023-07-20T14:48:26;5.47;;;1.42;;
20997;SDS011;10657;51.276;6.390;2023-07-20T14:50:53;3.13;;;1.35;;
20997;SDS011;10657;51.276;6.390;2023-07-20T14:53:30;3.22;;;1.20;;
20997;SDS011;10657;51.276;6.390;2023-07-20T14:56:00;3.95;;;1.30;;
20997;SDS011;10657;51.276;6.390;2023-07-20T14:58:27;3.63;;;1.40;;
20997;SDS011;10657;51.276;6.390;2023-07-20T15:00:56;2.60;;;1.15;;
20997;SDS011;10657;51.276;6.390;2023-07-20T15:03:22;2.78;;;1.15;;
20997;SDS011;10657;51.276;6.390;2023-07-20T15:05:49;3.03;;;1.30;;
20997;SDS011;10657;51.276;6.390;2023-07-20T15:08:17;4.35;;;1.30;;
20997;SDS011;10657;51.276;6.390;2023-07-20T15:10:45;3.08;;;1.30;;